createdAt,value
2018-06-02T00:02:22.745Z,64.77
2018-06-02T00:04:50.972Z,64.60
2018-06-02T00:07:19.208Z,64.83
2018-06-02T00:09:47.453Z,64.97
2018-06-02T00:12:16.461Z,65.20
2018-06-02T00:14:44.692Z,64.74
2018-06-02T00:17:12.942Z,65.17
2018-06-02T00:19:41.301Z,65.32
2018-06-02T00:22:09.538Z,64.11
2018-06-02T00:24:38.652Z,63.42
2018-06-02T00:27:07.914Z,62.50
2018-06-02T00:29:36.154Z,62.50
2018-06-02T00:32:04.386Z,62.25
2018-06-02T00:34:33.402Z,61.85
2018-06-02T00:37:01.634Z,61.81
2018-06-02T00:39:29.870Z,61.53
2018-06-02T00:41:58.119Z,61.65
2018-06-02T00:44:26.358Z,61.23
2018-06-02T00:46:54.761Z,61.07
2018-06-02T00:49:23.762Z,61.07
2018-06-02T00:51:52.762Z,61.00
2018-06-02T00:57:54.930Z,61.38
2018-06-02T01:00:23.178Z,61.24
2018-06-02T01:02:51.519Z,60.87
2018-06-02T01:05:19.734Z,60.99
2018-06-02T01:07:47.982Z,60.99
2018-06-02T01:10:16.214Z,61.22
2018-06-02T01:12:45.526Z,61.09
2018-06-02T01:15:13.766Z,61.36
2018-06-02T01:17:41.994Z,61.58
2018-06-02T01:20:10.238Z,61.79
2018-06-02T01:22:39.246Z,61.95
2018-06-02T01:25:07.488Z,61.90
2018-06-02T01:27:35.719Z,62.02
2018-06-02T01:30:03.950Z,61.68
2018-06-02T01:32:33.374Z,61.83
2018-06-02T01:35:01.605Z,61.70
2018-06-02T01:37:29.840Z,62.09
2018-06-02T01:39:58.098Z,62.27
2018-06-02T01:42:27.090Z,62.34
2018-06-02T01:44:56.091Z,62.48
2018-06-02T01:47:24.341Z,62.42
2018-06-02T01:49:53.161Z,62.52
2018-06-02T01:52:21.409Z,62.57
2018-06-02T01:54:49.642Z,62.27
2018-06-02T01:57:17.877Z,62.40
2018-06-02T01:59:46.122Z,62.50
2018-06-02T02:02:14.406Z,62.63
2018-06-02T02:04:42.907Z,62.79
2018-06-02T02:07:11.902Z,62.81
2018-06-02T02:09:40.139Z,62.89
2018-06-02T02:12:08.553Z,62.93
2018-06-02T02:14:37.554Z,63.11
2018-06-02T02:17:05.786Z,63.33
2018-06-02T02:19:34.030Z,63.09
2018-06-02T02:22:02.267Z,63.17
2018-06-02T02:24:31.261Z,63.38
2018-06-02T02:27:00.284Z,63.40
2018-06-02T02:29:28.511Z,63.88
2018-06-02T02:31:56.753Z,63.98
2018-06-02T02:34:24.993Z,64.08
2018-06-02T02:36:53.237Z,64.23
2018-06-02T02:39:21.642Z,64.57
2018-06-02T02:41:50.734Z,64.46
2018-06-02T02:44:19.734Z,64.41
2018-06-02T02:46:48.412Z,64.93
2018-06-02T02:49:17.405Z,65.27
2018-06-02T02:51:46.502Z,65.44
2018-06-02T02:54:15.519Z,65.31
2018-06-02T02:56:43.757Z,65.26
2018-06-02T02:59:11.981Z,65.20
2018-06-02T03:01:40.226Z,65.43
2018-06-02T03:04:08.462Z,65.27
2018-06-02T03:06:36.698Z,65.53
2018-06-02T03:09:04.950Z,65.43
2018-06-02T03:11:33.199Z,65.40
2018-06-02T03:14:01.437Z,65.40
2018-06-02T03:16:29.882Z,65.57
2018-06-02T03:18:58.130Z,65.47
2018-06-02T03:21:26.358Z,65.90
2018-06-02T03:23:54.609Z,65.90
2018-06-02T03:26:22.834Z,66.11
2018-06-02T03:28:51.070Z,66.31
2018-06-02T03:31:19.314Z,66.19
2018-06-02T03:33:48.333Z,66.51
2018-06-02T03:36:17.337Z,66.76
2018-06-02T03:38:45.569Z,66.94
2018-06-02T03:41:15.432Z,66.87
2018-06-02T03:43:43.678Z,66.86
2018-06-02T03:46:12.698Z,66.72
2018-06-02T03:48:40.943Z,67.01
2018-06-02T03:51:09.941Z,66.97
2018-06-02T03:53:38.945Z,67.08
2018-06-02T03:56:07.190Z,67.16
2018-06-02T03:58:35.442Z,67.18
2018-06-02T04:01:03.686Z,67.12
2018-06-02T04:03:31.917Z,67.21
2018-06-02T04:06:00.161Z,67.18
2018-06-02T04:08:28.394Z,67.24
2018-06-02T04:10:56.626Z,67.42
2018-06-02T04:13:24.878Z,67.48
2018-06-02T04:15:53.156Z,67.43
2018-06-02T04:18:22.317Z,67.27
2018-06-02T04:20:50.581Z,67.43
2018-06-02T04:23:19.581Z,67.70
2018-06-02T04:25:48.599Z,67.49
2018-06-02T04:28:16.842Z,67.77
2018-06-02T04:30:45.845Z,67.89
2018-06-02T04:33:14.854Z,67.40
2018-06-02T04:35:43.216Z,67.89
2018-06-02T04:38:11.460Z,67.54
2018-06-02T04:40:39.694Z,67.57
2018-06-02T04:43:07.943Z,67.85
2018-06-02T04:45:36.963Z,67.66
2018-06-02T04:48:05.191Z,67.61
2018-06-02T04:50:33.438Z,67.32
2018-06-02T04:53:01.682Z,67.31
2018-06-02T04:55:29.913Z,67.12
2018-06-02T04:57:58.181Z,67.13
2018-06-02T05:00:26.425Z,67.33
2018-06-02T05:02:54.663Z,67.16
2018-06-02T05:05:23.689Z,66.75
2018-06-02T05:07:51.914Z,66.78
2018-06-02T05:10:20.926Z,66.96
2018-06-02T05:12:49.166Z,66.61
2018-06-02T05:15:17.401Z,66.42
2018-06-02T05:17:45.634Z,66.34
2018-06-02T05:20:14.645Z,66.31
2018-06-02T05:22:43.642Z,66.34
2018-06-02T05:25:11.890Z,66.40
2018-06-02T05:27:40.138Z,66.45
2018-06-02T05:30:08.390Z,66.38
2018-06-02T05:32:36.639Z,66.95
2018-06-02T05:35:05.646Z,66.86
2018-06-02T05:37:33.898Z,66.57
2018-06-02T05:40:03.209Z,66.27
2018-06-02T05:42:31.450Z,65.84
2018-06-02T05:44:59.682Z,66.13
2018-06-02T05:47:27.929Z,65.84
2018-06-02T05:49:56.934Z,66.54
2018-06-02T05:52:25.302Z,65.45
2018-06-02T05:54:54.302Z,65.59
2018-06-02T05:57:22.582Z,65.64
2018-06-02T05:59:50.861Z,65.85
2018-06-02T06:02:19.842Z,65.03
2018-06-02T06:04:48.841Z,65.43
2018-06-02T06:07:17.088Z,65.35
2018-06-02T06:09:45.318Z,65.79
2018-06-02T06:12:13.562Z,66.57
2018-06-02T06:14:42.562Z,66.55
2018-06-02T06:17:10.811Z,66.89
2018-06-02T06:19:39.067Z,64.66
2018-06-02T06:22:07.289Z,64.28
2018-06-02T06:24:35.533Z,63.68
2018-06-02T06:27:03.770Z,64.25
2018-06-02T06:29:32.006Z,64.60
2018-06-02T06:32:01.027Z,64.25
2018-06-02T06:34:29.257Z,64.33
2018-06-02T06:36:57.493Z,65.25
2018-06-02T06:39:25.767Z,64.54
2018-06-02T06:41:54.016Z,64.38
2018-06-02T06:44:22.267Z,65.58
2018-06-02T06:46:50.497Z,65.85
2018-06-02T06:49:18.746Z,64.98
2018-06-02T06:51:47.019Z,63.89
2018-06-02T06:54:15.250Z,64.09
2018-06-02T06:56:43.485Z,64.84
2018-06-02T06:59:11.746Z,63.82
2018-06-02T07:01:39.974Z,64.12
2018-06-02T07:04:08.986Z,63.17
2018-06-02T07:06:37.990Z,60.91
2018-06-02T07:09:06.983Z,62.70
2018-06-02T07:11:35.999Z,63.43
2018-06-02T07:14:04.239Z,64.00
2018-06-02T07:16:32.490Z,63.55
2018-06-02T07:19:00.722Z,63.49
2018-06-02T07:21:28.958Z,62.97
2018-06-02T07:23:57.205Z,63.31
2018-06-02T07:26:25.430Z,63.83
2018-06-02T07:28:54.451Z,64.08
2018-06-02T07:31:22.681Z,63.48
2018-06-02T07:33:50.920Z,62.98
2018-06-02T07:36:19.156Z,63.45
2018-06-02T07:38:47.402Z,62.74
2018-06-02T07:41:15.702Z,64.01
2018-06-02T07:43:44.703Z,63.39
2018-06-02T07:46:12.951Z,63.68
2018-06-02T07:48:41.195Z,63.90
2018-06-02T07:51:09.425Z,63.23
2018-06-02T07:53:37.677Z,63.24
2018-06-02T07:56:05.918Z,62.14
2018-06-02T07:58:34.157Z,60.41
2018-06-02T08:01:02.398Z,60.50
2018-06-02T08:03:30.694Z,60.92
2018-06-02T08:05:59.709Z,62.62
2018-06-02T08:08:27.977Z,61.57
2018-06-02T08:10:56.211Z,59.72
2018-06-02T08:13:24.462Z,59.78
2018-06-02T08:15:52.693Z,59.89
2018-06-02T08:18:21.694Z,59.80
2018-06-02T08:20:49.940Z,59.61
2018-06-02T08:23:18.193Z,60.14
2018-06-02T08:25:46.434Z,59.56
2018-06-02T08:28:14.661Z,60.00
2018-06-02T08:30:42.914Z,59.80
2018-06-02T08:33:11.157Z,59.42
2018-06-02T08:35:39.389Z,58.92
2018-06-02T08:38:07.634Z,59.53
2018-06-02T08:40:35.874Z,61.22
2018-06-02T08:43:04.102Z,60.76
2018-06-02T08:45:32.352Z,58.98
2018-06-02T08:48:00.573Z,60.00
2018-06-02T08:50:29.583Z,59.77
2018-06-02T08:52:58.734Z,59.59
2018-06-02T08:55:26.970Z,60.17
2018-06-02T08:57:55.201Z,60.20
2018-06-02T09:00:23.481Z,59.65
2018-06-02T09:02:51.690Z,61.57
2018-06-02T09:05:19.952Z,61.30
2018-06-02T09:07:48.935Z,60.08
2018-06-02T09:10:17.942Z,61.30
2018-06-02T09:12:46.996Z,57.64
2018-06-02T09:15:15.522Z,58.05
2018-06-02T09:17:44.517Z,56.15
2018-06-02T09:20:13.516Z,55.06
2018-06-02T09:22:41.773Z,53.27
2018-06-02T09:25:10.772Z,54.48
2018-06-02T09:27:39.019Z,54.85
2018-06-02T09:30:07.258Z,55.49
2018-06-02T09:32:35.508Z,56.77
2018-06-02T09:35:03.830Z,57.43
2018-06-02T09:37:32.780Z,52.77
2018-06-02T09:40:01.026Z,53.10
2018-06-02T09:42:29.271Z,53.82
2018-06-02T09:44:57.507Z,53.21
2018-06-02T09:47:25.753Z,53.56
2018-06-02T09:49:53.990Z,53.63
2018-06-02T09:52:22.244Z,54.34
2018-06-02T09:54:50.483Z,53.68
2018-06-02T09:57:18.726Z,53.59
2018-06-02T09:59:47.258Z,50.92
2018-06-02T10:02:16.261Z,52.30
2018-06-02T10:04:44.498Z,52.57
2018-06-02T10:07:12.746Z,52.36
2018-06-02T10:09:40.990Z,53.82
2018-06-02T10:12:09.282Z,53.28
2018-06-02T10:14:37.514Z,53.30
2018-06-02T10:17:06.106Z,53.73
2018-06-02T10:19:35.102Z,53.87
2018-06-02T10:22:04.105Z,52.32
2018-06-02T10:24:32.356Z,51.84
2018-06-02T10:27:00.585Z,51.05
2018-06-02T10:29:29.032Z,51.66
2018-06-02T10:31:58.034Z,52.49
2018-06-02T10:34:26.270Z,53.18
2018-06-02T10:36:54.509Z,53.55
2018-06-02T10:39:22.746Z,52.61
2018-06-02T10:41:51.754Z,51.78
2018-06-02T10:44:20.003Z,51.93
2018-06-02T10:46:48.999Z,51.89
2018-06-02T10:49:18.029Z,51.22
2018-06-02T10:51:46.261Z,51.10
2018-06-02T10:54:15.277Z,51.71
2018-06-02T10:56:43.510Z,50.89
2018-06-02T10:59:11.758Z,52.60
2018-06-02T11:01:40.001Z,54.19
2018-06-02T11:04:09.006Z,50.51
2018-06-02T11:06:37.237Z,51.16
2018-06-02T11:09:06.225Z,52.68
2018-06-02T11:11:34.430Z,46.13
2018-06-02T11:14:03.454Z,46.83
2018-06-02T11:16:31.688Z,48.15
2018-06-02T11:19:00.693Z,49.20
2018-06-02T11:21:29.712Z,46.62
2018-06-02T11:23:57.970Z,47.14
2018-06-02T11:26:26.209Z,46.54
2018-06-02T11:28:54.455Z,48.16
2018-06-02T11:31:22.707Z,50.81
2018-06-02T11:33:50.941Z,45.31
2018-06-02T11:36:19.166Z,45.48
2018-06-02T11:38:47.414Z,47.72
2018-06-02T11:41:16.417Z,45.65
2018-06-02T11:43:44.670Z,46.39
2018-06-02T11:46:13.779Z,45.55
2018-06-02T11:48:42.782Z,46.19
2018-06-02T11:51:11.042Z,47.03
2018-06-02T11:53:40.034Z,46.62
2018-06-02T11:56:09.045Z,47.00
2018-06-02T11:58:37.336Z,48.04
2018-06-02T12:01:05.619Z,48.60
2018-06-02T12:03:33.887Z,49.30
2018-06-02T12:06:02.125Z,49.67
2018-06-02T12:08:31.338Z,49.98
2018-06-02T12:11:00.342Z,50.41
2018-06-02T12:13:28.573Z,51.91
2018-06-02T12:15:56.817Z,53.75
2018-06-02T12:18:25.049Z,49.85
2018-06-02T12:20:54.049Z,50.88
2018-06-02T12:23:22.296Z,46.14
2018-06-02T12:25:50.528Z,47.13
2018-06-02T12:28:18.800Z,48.40
2018-06-02T12:30:47.009Z,50.11
2018-06-02T12:33:15.261Z,50.22
2018-06-02T12:35:43.510Z,51.11
2018-06-02T12:38:11.783Z,51.06
2018-06-02T12:40:40.031Z,51.12
2018-06-02T12:43:08.268Z,51.86
2018-06-02T12:45:36.501Z,51.53
2018-06-02T12:48:05.514Z,50.00
2018-06-02T12:50:33.750Z,49.07
2018-06-02T12:53:02.758Z,48.31
2018-06-02T12:55:31.774Z,47.80
2018-06-02T12:58:00.011Z,48.57
2018-06-02T13:00:28.614Z,46.87
2018-06-02T13:02:57.620Z,45.80
2018-06-02T13:05:25.911Z,45.17
2018-06-02T13:07:54.141Z,46.03
2018-06-02T13:10:22.403Z,46.11
2018-06-02T13:12:50.638Z,47.58
2018-06-02T13:15:18.874Z,46.68
2018-06-02T13:17:47.889Z,43.62
2018-06-02T13:20:16.122Z,45.85
2018-06-02T13:22:44.358Z,47.13
2018-06-02T13:25:12.611Z,47.33
2018-06-02T13:27:40.846Z,46.64
2018-06-02T13:30:09.102Z,47.42
2018-06-02T13:32:37.346Z,48.86
2018-06-02T13:35:05.583Z,46.26
2018-06-02T13:37:33.831Z,47.19
2018-06-02T13:40:02.086Z,46.32
2018-06-02T13:42:30.317Z,48.68
2018-06-02T13:44:59.325Z,45.58
2018-06-02T13:47:28.337Z,46.51
2018-06-02T13:49:56.570Z,45.97
2018-06-02T13:52:24.814Z,45.60
2018-06-02T13:54:53.074Z,45.48
2018-06-02T13:57:21.527Z,44.34
2018-06-02T13:59:50.534Z,45.98
2018-06-02T14:02:18.765Z,46.83
2018-06-02T14:04:48.530Z,46.82
2018-06-02T14:07:16.757Z,46.44
2018-06-02T14:09:45.001Z,47.50
2018-06-02T14:12:13.270Z,45.74
2018-06-02T14:14:41.509Z,46.99
2018-06-02T14:17:10.522Z,48.13
2018-06-02T14:19:38.766Z,48.60
2018-06-02T14:22:07.764Z,46.38
2018-06-02T14:24:36.777Z,43.84
2018-06-02T14:27:05.024Z,44.19
2018-06-02T14:29:33.262Z,44.10
2018-06-02T14:32:01.494Z,46.14
2018-06-02T14:34:29.731Z,42.91
2018-06-02T14:36:57.989Z,43.33
2018-06-02T14:39:26.229Z,45.53
2018-06-02T14:41:54.474Z,44.46
2018-06-02T14:44:23.494Z,43.35
2018-06-02T14:46:51.741Z,42.75
2018-06-02T14:49:19.990Z,44.69
2018-06-02T14:51:48.237Z,43.15
2018-06-02T14:54:16.469Z,44.51
2018-06-02T14:56:45.781Z,44.42
2018-06-02T14:59:14.782Z,45.47
2018-06-02T15:01:43.024Z,45.63
2018-06-02T15:04:11.538Z,45.07
2018-06-02T15:06:39.774Z,43.16
2018-06-02T15:09:08.116Z,44.48
2018-06-02T15:11:36.369Z,44.92
2018-06-02T15:14:04.602Z,45.47
2018-06-02T15:16:32.841Z,44.84
2018-06-02T15:19:01.082Z,45.02
2018-06-02T15:21:30.216Z,45.37
2018-06-02T15:23:58.484Z,45.73
2018-06-02T15:26:26.727Z,45.21
2018-06-02T15:28:55.742Z,45.83
2018-06-02T15:31:23.997Z,47.08
2018-06-02T15:33:52.222Z,46.74
2018-06-02T15:36:20.469Z,45.76
2018-06-02T15:38:48.845Z,45.69
2018-06-02T15:41:17.094Z,46.01
2018-06-02T15:43:45.346Z,45.43
2018-06-02T15:46:13.589Z,45.36
2018-06-02T15:48:41.886Z,47.49
2018-06-02T15:51:10.072Z,48.64
2018-06-02T15:53:38.306Z,48.84
2018-06-02T15:56:06.769Z,48.46
2018-06-02T15:58:35.013Z,48.25
2018-06-02T16:01:03.258Z,48.58
2018-06-02T16:03:31.527Z,48.15
2018-06-02T16:05:59.737Z,48.44
2018-06-02T16:08:28.737Z,49.07
2018-06-02T16:10:56.981Z,49.33
2018-06-02T16:13:25.858Z,48.62
2018-06-02T16:15:54.107Z,48.24
2018-06-02T16:18:22.359Z,48.13
2018-06-02T16:20:50.588Z,48.14
2018-06-02T16:23:18.818Z,48.18
2018-06-02T16:25:47.838Z,48.72
2018-06-02T16:28:16.070Z,49.41
2018-06-02T16:30:44.304Z,49.49
2018-06-02T16:33:12.557Z,48.76
2018-06-02T16:35:40.785Z,49.68
2018-06-02T16:38:09.018Z,49.29
2018-06-02T16:40:37.584Z,49.29
2018-06-02T16:43:05.819Z,48.56
2018-06-02T16:45:34.057Z,48.60
2018-06-02T16:48:02.335Z,48.59
2018-06-02T16:50:30.577Z,48.06
2018-06-02T16:52:59.593Z,48.93
2018-06-02T16:55:27.873Z,48.33
2018-06-02T16:57:56.930Z,46.75
2018-06-02T17:00:25.981Z,48.33
2018-06-02T17:02:54.272Z,49.16
2018-06-02T17:05:22.589Z,47.04
2018-06-02T17:07:51.597Z,46.66
2018-06-02T17:10:20.073Z,47.08
2018-06-02T17:12:48.305Z,47.88
2018-06-02T17:15:18.096Z,46.42
2018-06-02T17:17:46.333Z,47.41
2018-06-02T17:20:14.566Z,46.24
2018-06-02T17:22:42.807Z,46.23
2018-06-02T17:25:11.053Z,46.03
2018-06-02T17:27:40.061Z,46.42
2018-06-02T17:30:08.298Z,47.90
2018-06-02T17:32:36.542Z,48.14
2018-06-02T17:35:04.777Z,47.80
2018-06-02T17:37:33.890Z,46.44
2018-06-02T17:40:02.122Z,48.02
2018-06-02T17:42:30.353Z,47.06
2018-06-02T17:44:58.602Z,47.23
2018-06-02T17:47:26.835Z,46.57
2018-06-02T17:49:55.075Z,46.18
2018-06-02T17:52:23.334Z,45.83
2018-06-02T17:54:51.574Z,46.07
2018-06-02T17:57:19.805Z,45.91
2018-06-02T17:59:48.069Z,46.69
2018-06-02T18:02:16.305Z,47.27
2018-06-02T18:04:45.310Z,48.24
2018-06-02T18:07:14.310Z,47.45
2018-06-02T18:09:43.330Z,47.92
2018-06-02T18:12:11.562Z,47.92
2018-06-02T18:14:40.578Z,48.44
2018-06-02T18:17:08.822Z,48.99
2018-06-02T18:19:37.838Z,49.26
2018-06-02T18:22:06.846Z,50.10
2018-06-02T18:24:35.096Z,49.28
2018-06-02T18:30:03.660Z,49.09
2018-06-02T18:32:31.943Z,49.57
2018-06-02T18:35:00.234Z,49.70
2018-06-02T18:37:29.370Z,49.28
2018-06-02T18:39:57.900Z,49.34
2018-06-02T18:42:26.224Z,49.18
2018-06-02T18:44:54.563Z,49.81
2018-06-02T18:47:22.959Z,51.24
2018-06-02T18:49:51.293Z,52.03
2018-06-02T18:52:19.617Z,52.17
2018-06-02T18:54:47.940Z,52.34
2018-06-02T18:57:16.215Z,52.27
2018-06-02T18:59:44.581Z,52.76
2018-06-02T19:02:12.930Z,53.43
2018-06-02T19:04:41.224Z,53.19
2018-06-02T19:07:09.519Z,53.02
2018-06-02T19:09:38.839Z,53.33
2018-06-02T19:12:07.886Z,53.83
2018-06-02T19:14:36.166Z,53.85
2018-06-02T19:17:04.466Z,53.54
2018-06-02T19:19:32.744Z,54.19
2018-06-02T19:22:01.346Z,53.99
2018-06-02T19:24:29.635Z,54.38
2018-06-02T19:26:57.940Z,55.00
2018-06-02T19:29:26.294Z,54.89
2018-06-02T19:31:54.587Z,55.07
2018-06-02T19:34:22.900Z,55.07
2018-06-02T19:36:51.757Z,55.37
2018-06-02T19:39:20.827Z,55.63
2018-06-02T19:41:49.109Z,55.70
2018-06-02T19:44:17.398Z,56.00
2018-06-02T19:46:45.676Z,56.30
2018-06-02T19:49:13.994Z,56.56
2018-06-02T19:51:42.296Z,55.39
2018-06-02T19:54:10.589Z,53.61
2018-06-02T19:56:39.675Z,54.07
2018-06-02T19:59:07.992Z,54.77
2018-06-02T20:01:36.330Z,55.50
2018-06-02T20:04:04.643Z,55.69
2018-06-02T20:06:32.940Z,55.83
2018-06-02T20:09:01.232Z,55.92
2018-06-02T20:11:30.291Z,56.61
2018-06-02T20:13:58.573Z,56.44
2018-06-02T20:16:27.040Z,57.38
2018-06-02T20:18:55.317Z,57.67
2018-06-02T20:21:23.994Z,58.08
2018-06-02T20:23:52.278Z,57.47
2018-06-02T20:26:20.563Z,57.13
2018-06-02T20:28:48.859Z,57.38
2018-06-02T20:31:17.981Z,56.95
2018-06-02T20:33:47.026Z,56.53
2018-06-02T20:36:15.313Z,56.66
2018-06-02T20:38:43.631Z,57.22
2018-06-02T20:41:11.977Z,56.36
2018-06-02T20:43:40.237Z,56.37
2018-06-02T20:46:09.378Z,56.44
2018-06-02T20:48:37.682Z,56.65
2018-06-02T20:51:07.050Z,56.72
2018-06-02T20:53:36.112Z,56.86
2018-06-02T20:56:04.376Z,56.67
2018-06-02T20:58:32.684Z,56.90
2018-06-02T21:01:00.991Z,56.18
2018-06-02T21:03:29.301Z,56.69
2018-06-02T21:05:58.353Z,56.42
2018-06-02T21:08:26.653Z,56.35
2018-06-02T21:10:54.948Z,56.33
2018-06-02T21:13:23.261Z,56.39
2018-06-02T21:15:51.599Z,56.29
2018-06-02T21:18:19.915Z,55.88
2018-06-02T21:20:48.258Z,55.50
2018-06-02T21:23:17.311Z,55.34
2018-06-02T21:25:45.621Z,55.16
2018-06-02T21:28:13.927Z,55.12
2018-06-02T21:30:42.549Z,55.58
2018-06-02T21:33:10.848Z,55.46
2018-06-02T21:35:39.170Z,55.65
2018-06-02T21:38:07.476Z,56.10
2018-06-02T21:40:36.556Z,56.46
2018-06-02T21:43:04.875Z,56.61
2018-06-02T21:45:33.242Z,56.74
2018-06-02T21:48:01.581Z,57.13
2018-06-02T21:50:30.641Z,57.26
2018-06-02T21:52:59.713Z,57.55
2018-06-02T21:55:28.086Z,57.60
2018-06-02T21:57:56.320Z,57.49
2018-06-02T22:00:24.647Z,57.73
2018-06-02T22:02:53.755Z,57.49
2018-06-02T22:05:22.849Z,57.96
2018-06-02T22:07:51.945Z,58.47
2018-06-02T22:10:20.216Z,58.81
2018-06-02T22:12:48.510Z,59.13
2018-06-02T22:15:16.808Z,59.41
2018-06-02T22:17:45.119Z,60.03
2018-06-02T22:20:14.381Z,60.29
2018-06-02T22:22:42.744Z,60.32
2018-06-02T22:25:11.037Z,60.48
2018-06-02T22:27:39.345Z,60.85
2018-06-02T22:30:07.637Z,60.79
2018-06-02T22:32:35.950Z,60.74
2018-06-02T22:35:05.756Z,60.89
2018-06-02T22:37:34.052Z,61.42
2018-06-02T22:40:02.322Z,62.22
2018-06-02T22:42:31.419Z,62.68
2018-06-02T22:44:59.731Z,62.77
2018-06-02T22:47:28.054Z,63.11
2018-06-02T22:49:56.350Z,63.18
2018-06-02T22:52:25.432Z,63.03
2018-06-02T22:54:53.723Z,62.86
2018-06-02T22:57:22.103Z,62.93
2018-06-02T22:59:50.424Z,63.05
2018-06-02T23:02:18.733Z,62.90
2018-06-02T23:04:47.010Z,62.82
2018-06-02T23:07:15.315Z,63.12
2018-06-02T23:09:43.623Z,63.14
2018-06-02T23:12:11.933Z,63.08
2018-06-02T23:14:40.225Z,63.06
2018-06-02T23:17:08.533Z,63.16
2018-06-02T23:19:36.870Z,63.64
2018-06-02T23:22:05.352Z,63.70
2018-06-02T23:24:33.653Z,63.77
2018-06-02T23:27:02.021Z,63.98
2018-06-02T23:29:31.073Z,64.28
2018-06-02T23:31:59.349Z,64.34
2018-06-02T23:34:27.632Z,64.41
2018-06-02T23:36:55.927Z,64.38
2018-06-02T23:39:24.244Z,64.40
2018-06-02T23:41:52.588Z,64.29
2018-06-02T23:44:20.900Z,64.52
2018-06-02T23:46:49.173Z,64.82
2018-06-02T23:49:17.459Z,65.18
2018-06-02T23:51:45.808Z,64.98
2018-06-02T23:54:14.892Z,65.10
2018-06-02T23:56:43.181Z,64.80
2018-06-02T23:59:11.954Z,64.94
